Portada
METAR-TAF:

METAR-TAF

Aeropuertos :

Aeropuerto Internacional Yundum

Banjul, Gambia

latitud: 13-21N, longitud: 016-48W, altitud: 36 m

Observación

El informe se hizo hace 53 minutos, a las 03:00 UTC
Viento 3 kt con dirección variable
Temperatura 25°C
Humedad 100%
Presión 1010 hPa
Visibilidad 10 km o más
Escasas nubes a una altura de 1000 ft

METAR: GBYD 240300Z VRB03KT 9999 FEW010 25/25 Q1010

Hora: 03:53 (03:53 UTC)

Pronóstico

El informe se hizo hace 4 horas y 23 minutos, a las 23:30 UTC
Pronóstico válido del 24 a las 00 UTC al 25 a las 06 UTC
Viento 7 kt del oeste
Visibilidad 10 km o más
Nubes dispersas a una altura de 1200 ft

TAF: GBYD 232330Z 2400/2506 26007KT 9999 SCT012

Observaciones y pronósticos meteorológicos de más de 4000 aeropuertos (mensajes METAR y TAF).

Los puntos amarillos y rojos representan las estaciones disponibles.

Ponga el ratón en el punto deseado para ver el nombre de la estación.

Haga clic para ver las observaciones y los pronósticos meteorológicos.

Para cambiar el mapa : haga clic en los botones verdes con una cruz de color negro para hacer un zoom, en el botón verde con un guión para alejar o en las flechas verdes para mapas adyacentes.


METAR-TAF: